Aeroporto :
LOGIN :

Iscrizione | Disclaimer

   EN    FR    IT 

 










Sommario :    VFR   VFR Marginale   IFR   IFR Intensivo   IFR Molto Intensivo
Visibilità : 
Base nubi : 
>= 8 km
>= 3000ft
5 / 8 km
1000 / 3000 ft
1500m / 5 km
500 / 1000 ft
800 / 1500m
200 / 500 ft
< 800m
< 200 ft
Simboli :   Temporali  Nebbia  Neve Forte  Precipitazioni Forti  Vento > 20 kt
SIGMETs :   Varie  Temporali  Ghiacco  Turbolenza  Onda orograficha  Ceneri Vulcaniche







- Altitudine del aeroporto : 183 ft


LIBA - Amendola Foggia

ULTIMO METAR :
  • 241055Z 30013KT 9999 SCT040 28/18 Q1016 RMK SCT VIS MIN 9999 WIND THR11 30013KT WIND THR29 /////KT BLU

METARs OBSOLETI :
  • 240955Z 31017KT 9999 SCT040 27/17 Q1016 RMK SCT VIS MIN 9999 WIND THR11 31015KT WIND THR29 /////KT BLU
  • 240855Z 30016KT 9999 FEW030TCU SCT035 28/18 Q1015 RMK SCT VIS MIN 9999 WIND THR11 30016KT WIND THR29 /////KT BLU

TAF TAF LIBA
Valido dal 24 a 12 ore il 24 a 21 ore UTC


241100Z 2412/2421 30017KT 9999 SCT030
TEMPO 2412/2417 30020G30KT
Nessun NOTAM noto per questo aeroporto.



MetMap, La meteo Aeronautica in un colpo d'occhio ! - Copyright ORBIFLY Dicembre 2007 - Disclaimer

ORBIFLY MET'MAP TEAM :

Programmazione e sviluppo : Alexandra Zaïnal
Concezione e sviluppo : Baudouin d'Aumeries
Co-Programmazione e sviluppo : Marc-Olivier Méhu
Supporto tecnico e logistico : Manuel Goepfert
Aiuto per la traduzione : Arnaldo La Scala

Contatto : metmap@orbifly.com




FONTI E CREDITI :

   NOAA